Rp Zug — HE7351 — position and weather

sailwx.info

Track history (hours):
 
Tides and Currents Weather Stations Pressure Air Temp Water Temp Dewpoint Dewpoint Depression Visibility Wind Speed Wind Dir Waves Ship Positions

Rp Zug

Last reported at 2014-Jul-23 15:33 UTC. Time now 2014-Jul-23 16:24 UTC.
Position N 49°04' E 008°20'.

Type: Tanker. MMSI: 269057351.

Date/timePositionNaut miles runAvg speedWind from/ knotsBaromVisibWave heightAir tempDewpointWater temp
2014-Jul-23 15:33N 49°04' E 008°20'0 0.0
2014-Jul-23 14:33N 49°04' E 008°20'0 0.0
2014-Jul-23 13:33N 49°04' E 008°20'0 0.0
2014-Jul-23 12:33N 49°04' E 008°20'0 0.0
2014-Jul-23 11:33N 49°04' E 008°20'0 0.0
2014-Jul-23 10:33N 49°04' E 008°20'0 0.0
2014-Jul-23 09:33N 49°04' E 008°20'0 0.0
2014-Jul-23 08:33N 49°04' E 008°20'0 0.0
2014-Jul-23 07:33N 49°04' E 008°20'0 0.0
2014-Jul-23 06:33N 49°04' E 008°20'0 0.0
2014-Jul-23 05:33N 49°04' E 008°20'0 0.0
2014-Jul-23 04:33N 49°04' E 008°20'0 0.0
2014-Jul-23 03:33N 49°04' E 008°20'0 0.0
2014-Jul-23 02:33N 49°04' E 008°20'0 0.4
2014-Jul-23 01:33N 49°04' E 008°20'1110.9
2014-Jul-23 00:33N 48°55' E 008°10'6 6.3
2014-Jul-22 23:33N 48°50' E 008°07'1 0.6
2014-Jul-22 22:33N 48°49' E 008°06'9 9.5
2014-Jul-22 21:33N 48°42' E 007°56'64 4.1
2014-Jul-22 06:04N 47°41' E 007°31'2 3.1
2014-Jul-22 05:33N 47°39' E 007°32'0 0.3
2014-Jul-22 04:33N 47°39' E 007°32'7 6.6
2014-Jul-22 03:33N 47°34' E 007°38'1 1.4
2014-Jul-22 02:33N 47°33' E 007°40'0 0.0
2014-Jul-22 01:33N 47°33' E 007°40'0 0.0
2014-Jul-22 00:33N 47°33' E 007°40'0 0.0
2014-Jul-21 23:33N 47°33' E 007°40'0 0.0
2014-Jul-21 22:33N 47°33' E 007°40'0 0.0
2014-Jul-21 21:33N 47°33' E 007°40'0 0.0
2014-Jul-21 20:33N 47°33' E 007°39'0 0.0
2014-Jul-21 20:17N 47°33' E 007°39'0 0.0
2014-Jul-21 19:33N 47°33' E 007°39'0 0.0
2014-Jul-21 18:33N 47°33' E 007°39'0 0.0
2014-Jul-21 17:33N 47°33' E 007°40'0 0.0
2014-Jul-21 16:33N 47°33' E 007°40'0 0.0
2014-Jul-21 15:33N 47°33' E 007°40'0 0.0
2014-Jul-21 14:33N 47°33' E 007°39'0 0.0
2014-Jul-21 13:33N 47°33' E 007°39'0 0.0
2014-Jul-21 12:33N 47°33' E 007°40'0 0.0
2014-Jul-21 11:33N 47°33' E 007°40'0 0.0
2014-Jul-21 10:33N 47°33' E 007°40'0 0.0
2014-Jul-21 09:33N 47°33' E 007°39'0 0.0
2014-Jul-21 08:33N 47°33' E 007°39'0 0.0
2014-Jul-21 07:33N 47°33' E 007°39'0 0.0
2014-Jul-21 06:33N 47°33' E 007°40'0 0.0
2014-Jul-21 05:33N 47°33' E 007°40'0 0.1
2014-Jul-21 04:33N 47°33' E 007°40'0 0.0
2014-Jul-21 03:33N 47°33' E 007°40'0 0.0
2014-Jul-21 02:33N 47°33' E 007°40'0 0.0
2014-Jul-21 01:33N 47°33' E 007°40'0 0.0
2014-Jul-21 00:33N 47°33' E 007°40'0 0.0
2014-Jul-20 23:33N 47°33' E 007°40'0 0.0
2014-Jul-20 22:33N 47°33' E 007°40'0 0.0
2014-Jul-20 21:33N 47°33' E 007°40'0 0.0
2014-Jul-20 20:33N 47°33' E 007°40'0 0.0
2014-Jul-20 19:33N 47°33' E 007°40'0 0.0
2014-Jul-20 18:33N 47°33' E 007°40'0 0.0
2014-Jul-20 17:33N 47°33' E 007°40'0 0.0
2014-Jul-20 16:33N 47°33' E 007°40'2 1.9
2014-Jul-20 15:33N 47°34' E 007°37'3 3.2
2014-Jul-20 14:33N 47°37' E 007°35'4 4.1
2014-Jul-20 13:33N 47°40' E 007°31'64 4.0
2014-Jul-19 21:33N 48°41' E 007°55'5 5.4
2014-Jul-19 20:33N 48°46' E 007°60'6 5.1
2014-Jul-19 19:18N 48°50' E 008°07'3 4.6
2014-Jul-19 18:32N 48°53' E 008°08'4 4.2
2014-Jul-19 17:33N 48°57' E 008°11'4 4.2
2014-Jul-19 16:33N 48°59' E 008°17'5 4.6
2014-Jul-19 15:33N 49°04' E 008°19'1 1.0
2014-Jul-19 14:34N 49°04' E 008°20'0 0.0
2014-Jul-19 13:34N 49°04' E 008°20'0 0.0
2014-Jul-19 12:34N 49°04' E 008°20'0 0.0
2014-Jul-19 11:34N 49°04' E 008°20'0 0.0
2014-Jul-19 10:33N 49°04' E 008°20'0 0.0
2014-Jul-19 09:33N 49°04' E 008°20'0 0.0
2014-Jul-19 08:33N 49°04' E 008°20'0 0.0
2014-Jul-19 07:33N 49°04' E 008°20'0 0.0
2014-Jul-19 06:34N 49°04' E 008°20'0 0.0
2014-Jul-19 05:33N 49°04' E 008°20'0 0.2
2014-Jul-19 04:33N 49°04' E 008°20'0 0.0
2014-Jul-19 03:33N 49°04' E 008°20'0 0.0
2014-Jul-19 02:33N 49°04' E 008°20'0 0.0
2014-Jul-19 01:33N 49°04' E 008°20'0 0.0
2014-Jul-19 00:33N 49°04' E 008°20'0 0.0
2014-Jul-18 23:33N 49°04' E 008°20'0 0.0
2014-Jul-18 22:34N 49°04' E 008°20'0 0.0
2014-Jul-18 21:34N 49°04' E 008°20'0 0.0
2014-Jul-18 20:34N 49°04' E 008°20'0 0.0
2014-Jul-18 19:34N 49°04' E 008°20'0 0.0
2014-Jul-18 18:34N 49°04' E 008°20'0 0.0
2014-Jul-18 17:34N 49°04' E 008°20'0 0.0
2014-Jul-18 16:33N 49°04' E 008°20'0 0.0
2014-Jul-18 15:34N 49°04' E 008°20'0 0.0
2014-Jul-18 14:34N 49°04' E 008°20'0 0.0
2014-Jul-18 13:33N 49°04' E 008°20'0 0.0
2014-Jul-18 12:34N 49°04' E 008°20'0 0.0
2014-Jul-18 11:33N 49°04' E 008°20'0 0.0
2014-Jul-18 10:34N 49°04' E 008°20'0 0.0
2014-Jul-18 09:33N 49°04' E 008°20'0 0.0
2014-Jul-18 08:33N 49°04' E 008°20'0 0.0
2014-Jul-18 07:34N 49°04' E 008°20'0 0.0
2014-Jul-18 06:33N 49°04' E 008°20'0 0.0
2014-Jul-18 05:33N 49°04' E 008°20'0 0.0
2014-Jul-18 04:34N 49°04' E 008°20'0 0.0
2014-Jul-18 03:33N 49°04' E 008°20'0 0.0
2014-Jul-18 02:33N 49°04' E 008°20'0 0.0
2014-Jul-18 01:34N 49°04' E 008°20'0 0.0
2014-Jul-18 00:33N 49°04' E 008°20'0 0.0
2014-Jul-17 23:34N 49°04' E 008°20'0 0.0
2014-Jul-17 22:34N 49°04' E 008°20'0 0.0
2014-Jul-17 21:34N 49°04' E 008°20'0 0.0
2014-Jul-17 20:34N 49°04' E 008°20'0 0.0
2014-Jul-17 19:34N 49°04' E 008°20'5 4.5
2014-Jul-17 18:33N 49°00' E 008°17'1211.0
2014-Jul-17 17:29N 48°51' E 008°07'4 3.8
2014-Jul-17 16:32N 48°47' E 008°04'9 8.6
2014-Jul-17 15:30N 48°41' E 007°55'  
Track history (hours):
 
Tides and Currents Weather Stations Pressure Air Temp Water Temp Dewpoint Dewpoint Depression Visibility Wind Speed Wind Dir Waves Ship Positions

Rp Zug

Last reported at 2014-Jul-23 15:33 UTC. Time now 2014-Jul-23 16:24 UTC.
Position N 49°04' E 008°20'.

Type: Tanker. MMSI: 269057351.

Date/timePositionNaut miles runAvg speedWind from/ knotsBaromVisibWave heightAir tempDewpointWater temp
2014-Jul-23 15:33N 49°04' E 008°20'0 0.0
2014-Jul-23 14:33N 49°04' E 008°20'0 0.0
2014-Jul-23 13:33N 49°04' E 008°20'0 0.0
2014-Jul-23 12:33N 49°04' E 008°20'0 0.0
2014-Jul-23 11:33N 49°04' E 008°20'0 0.0
2014-Jul-23 10:33N 49°04' E 008°20'0 0.0
2014-Jul-23 09:33N 49°04' E 008°20'0 0.0
2014-Jul-23 08:33N 49°04' E 008°20'0 0.0
2014-Jul-23 07:33N 49°04' E 008°20'0 0.0
2014-Jul-23 06:33N 49°04' E 008°20'0 0.0
2014-Jul-23 05:33N 49°04' E 008°20'0 0.0
2014-Jul-23 04:33N 49°04' E 008°20'0 0.0
2014-Jul-23 03:33N 49°04' E 008°20'0 0.0
2014-Jul-23 02:33N 49°04' E 008°20'0 0.4
2014-Jul-23 01:33N 49°04' E 008°20'1110.9
2014-Jul-23 00:33N 48°55' E 008°10'6 6.3
2014-Jul-22 23:33N 48°50' E 008°07'1 0.6
2014-Jul-22 22:33N 48°49' E 008°06'9 9.5
2014-Jul-22 21:33N 48°42' E 007°56'64 4.1
2014-Jul-22 06:04N 47°41' E 007°31'2 3.1
2014-Jul-22 05:33N 47°39' E 007°32'0 0.3
2014-Jul-22 04:33N 47°39' E 007°32'7 6.6
2014-Jul-22 03:33N 47°34' E 007°38'1 1.4
2014-Jul-22 02:33N 47°33' E 007°40'0 0.0
2014-Jul-22 01:33N 47°33' E 007°40'0 0.0
2014-Jul-22 00:33N 47°33' E 007°40'0 0.0
2014-Jul-21 23:33N 47°33' E 007°40'0 0.0
2014-Jul-21 22:33N 47°33' E 007°40'0 0.0
2014-Jul-21 21:33N 47°33' E 007°40'0 0.0
2014-Jul-21 20:33N 47°33' E 007°39'0 0.0
2014-Jul-21 20:17N 47°33' E 007°39'0 0.0
2014-Jul-21 19:33N 47°33' E 007°39'0 0.0
2014-Jul-21 18:33N 47°33' E 007°39'0 0.0
2014-Jul-21 17:33N 47°33' E 007°40'0 0.0
2014-Jul-21 16:33N 47°33' E 007°40'0 0.0
2014-Jul-21 15:33N 47°33' E 007°40'0 0.0
2014-Jul-21 14:33N 47°33' E 007°39'0 0.0
2014-Jul-21 13:33N 47°33' E 007°39'0 0.0
2014-Jul-21 12:33N 47°33' E 007°40'0 0.0
2014-Jul-21 11:33N 47°33' E 007°40'0 0.0
2014-Jul-21 10:33N 47°33' E 007°40'0 0.0
2014-Jul-21 09:33N 47°33' E 007°39'0 0.0
2014-Jul-21 08:33N 47°33' E 007°39'0 0.0
2014-Jul-21 07:33N 47°33' E 007°39'0 0.0
2014-Jul-21 06:33N 47°33' E 007°40'0 0.0
2014-Jul-21 05:33N 47°33' E 007°40'0 0.1
2014-Jul-21 04:33N 47°33' E 007°40'0 0.0
2014-Jul-21 03:33N 47°33' E 007°40'0 0.0
2014-Jul-21 02:33N 47°33' E 007°40'0 0.0
2014-Jul-21 01:33N 47°33' E 007°40'0 0.0
2014-Jul-21 00:33N 47°33' E 007°40'0 0.0
2014-Jul-20 23:33N 47°33' E 007°40'0 0.0
2014-Jul-20 22:33N 47°33' E 007°40'0 0.0
2014-Jul-20 21:33N 47°33' E 007°40'0 0.0
2014-Jul-20 20:33N 47°33' E 007°40'0 0.0
2014-Jul-20 19:33N 47°33' E 007°40'0 0.0
2014-Jul-20 18:33N 47°33' E 007°40'0 0.0
2014-Jul-20 17:33N 47°33' E 007°40'0 0.0
2014-Jul-20 16:33N 47°33' E 007°40'2 1.9
2014-Jul-20 15:33N 47°34' E 007°37'3 3.2
2014-Jul-20 14:33N 47°37' E 007°35'4 4.1
2014-Jul-20 13:33N 47°40' E 007°31'64 4.0
2014-Jul-19 21:33N 48°41' E 007°55'5 5.4
2014-Jul-19 20:33N 48°46' E 007°60'6 5.1
2014-Jul-19 19:18N 48°50' E 008°07'3 4.6
2014-Jul-19 18:32N 48°53' E 008°08'4 4.2
2014-Jul-19 17:33N 48°57' E 008°11'4 4.2
2014-Jul-19 16:33N 48°59' E 008°17'5 4.6
2014-Jul-19 15:33N 49°04' E 008°19'1 1.0
2014-Jul-19 14:34N 49°04' E 008°20'0 0.0
2014-Jul-19 13:34N 49°04' E 008°20'0 0.0
2014-Jul-19 12:34N 49°04' E 008°20'0 0.0
2014-Jul-19 11:34N 49°04' E 008°20'0 0.0
2014-Jul-19 10:33N 49°04' E 008°20'0 0.0
2014-Jul-19 09:33N 49°04' E 008°20'0 0.0
2014-Jul-19 08:33N 49°04' E 008°20'0 0.0
2014-Jul-19 07:33N 49°04' E 008°20'0 0.0
2014-Jul-19 06:34N 49°04' E 008°20'0 0.0
2014-Jul-19 05:33N 49°04' E 008°20'0 0.2
2014-Jul-19 04:33N 49°04' E 008°20'0 0.0
2014-Jul-19 03:33N 49°04' E 008°20'0 0.0
2014-Jul-19 02:33N 49°04' E 008°20'0 0.0
2014-Jul-19 01:33N 49°04' E 008°20'0 0.0
2014-Jul-19 00:33N 49°04' E 008°20'0 0.0
2014-Jul-18 23:33N 49°04' E 008°20'0 0.0
2014-Jul-18 22:34N 49°04' E 008°20'0 0.0
2014-Jul-18 21:34N 49°04' E 008°20'0 0.0
2014-Jul-18 20:34N 49°04' E 008°20'0 0.0
2014-Jul-18 19:34N 49°04' E 008°20'0 0.0
2014-Jul-18 18:34N 49°04' E 008°20'0 0.0
2014-Jul-18 17:34N 49°04' E 008°20'0 0.0
2014-Jul-18 16:33N 49°04' E 008°20'0 0.0
2014-Jul-18 15:34N 49°04' E 008°20'0 0.0
2014-Jul-18 14:34N 49°04' E 008°20'0 0.0
2014-Jul-18 13:33N 49°04' E 008°20'0 0.0
2014-Jul-18 12:34N 49°04' E 008°20'0 0.0
2014-Jul-18 11:33N 49°04' E 008°20'0 0.0
2014-Jul-18 10:34N 49°04' E 008°20'0 0.0
2014-Jul-18 09:33N 49°04' E 008°20'0 0.0
2014-Jul-18 08:33N 49°04' E 008°20'0 0.0
2014-Jul-18 07:34N 49°04' E 008°20'0 0.0
2014-Jul-18 06:33N 49°04' E 008°20'0 0.0
2014-Jul-18 05:33N 49°04' E 008°20'0 0.0
2014-Jul-18 04:34N 49°04' E 008°20'0 0.0
2014-Jul-18 03:33N 49°04' E 008°20'0 0.0
2014-Jul-18 02:33N 49°04' E 008°20'0 0.0
2014-Jul-18 01:34N 49°04' E 008°20'0 0.0
2014-Jul-18 00:33N 49°04' E 008°20'0 0.0
2014-Jul-17 23:34N 49°04' E 008°20'0 0.0
2014-Jul-17 22:34N 49°04' E 008°20'0 0.0
2014-Jul-17 21:34N 49°04' E 008°20'0 0.0
2014-Jul-17 20:34N 49°04' E 008°20'0 0.0
2014-Jul-17 19:34N 49°04' E 008°20'5 4.5
2014-Jul-17 18:33N 49°00' E 008°17'1211.0
2014-Jul-17 17:29N 48°51' E 008°07'4 3.8
2014-Jul-17 16:32N 48°47' E 008°04'9 8.6
2014-Jul-17 15:30N 48°41' E 007°55'  

Dump ship's entire track history